Archival Weather

Heathrow

London, United Kingdom (EGLL)

Report from: Thursday, September 21, 2023 10:50 PM BST
Current time: Saturday, February 24, 2024 4:11 PM GMT

Current weather – Weather history – Daily summaries
Weather forecast

Temperature14.0°C (57.2°F)
Dew point12.0°C (53.6°F)
Winds 3 kts (1.5 m/s, 3.5 mph) Vrb
Winds variableWinds variable from Southwest (220°) to West-Northwest (300°)
Visibility6.2 mi. (10 km)
Clouds Sky clear
Altimeter29.41 in.Hg (996 mB)
Relative humidity88 %
Density altitude666 ft. (203 m)
Remarks Fully automated report
No clouds detected
No significant changes expected in the next two hours
Flight conditions Visual Meteorological Conditions
Raw dataEGLL 212150Z AUTO 25003KT 220V300 9999 NCD 14/12 Q0996 NOSIG
An error has occurred. This application may no longer respond until reloaded. Reload 🗙